Time;durP1;ratioP1;P1;durP2;ratioP2;P2;SDS_P1;SDS_P2;PMS_P1;PMS_P2;Temp;Humidity;BMP_temperature;BMP_pressure;BME280_temperature;BME280_humidity;BME280_pressure;Samples;Min_cycle;Max_cycle;Signal;HPM_P1;HPM_P2
2021/08/15 00:00:14;;;;;;;14.60;7.60;;;;;;;20.29;52.32;99303.94;1870565;76;22156;-62
2021/08/15 00:02:49;;;;;;;11.95;7.30;;;;;;;20.27;52.34;99304.88;1870774;76;22516;-63
2021/08/15 00:05:24;;;;;;;11.33;7.05;;;;;;;20.24;52.41;99295.78;1890091;76;22574;-61
2021/08/15 00:08:18;;;;;;;14.90;7.22;;;;;;;20.21;52.39;99306.34;1870627;76;22206;-60
2021/08/15 00:10:53;;;;;;;14.95;7.65;;;;;;;20.20;52.38;99302.86;1870662;76;22149;-61
2021/08/15 00:13:27;;;;;;;11.28;7.08;;;;;;;20.19;52.32;99301.57;1870730;76;22125;-61
2021/08/15 00:16:03;;;;;;;15.93;7.03;;;;;;;20.18;52.30;99303.80;1870657;76;22173;-59
2021/08/15 00:18:56;;;;;;;13.13;6.28;;;;;;;20.16;52.24;99303.36;1870799;76;22167;-62
2021/08/15 00:21:34;;;;;;;12.03;5.87;;;;;;;20.15;52.14;99309.51;1890045;76;22167;-58
2021/08/15 00:24:36;;;;;;;12.18;6.40;;;;;;;20.16;52.12;99303.36;1889860;76;22650;-59
2021/08/15 00:27:30;;;;;;;10.25;5.67;;;;;;;20.14;52.19;99303.83;1870555;76;22112;-58
2021/08/15 00:30:07;;;;;;;10.85;5.65;;;;;;;20.13;52.17;99299.50;1870646;76;22113;-59
2021/08/15 00:32:45;;;;;;;11.48;6.45;;;;;;;20.13;52.18;99301.27;1870675;76;22109;-61
2021/08/15 00:35:20;;;;;;;12.05;5.53;;;;;;;20.15;52.29;99305.58;1870595;76;22181;-62
2021/08/15 00:38:14;;;;;;;13.65;6.40;;;;;;;20.16;52.35;99307.74;1870608;76;22145;-61
2021/08/15 00:40:49;;;;;;;17.05;6.72;;;;;;;20.15;52.46;99307.34;1890023;76;20101;-60
2021/08/15 00:43:26;;;;;;;15.55;6.75;;;;;;;20.12;52.59;99303.03;1844266;76;22618;-58
2021/08/15 00:46:10;;;;;;;11.43;6.30;;;;;;;20.09;52.67;99296.98;1870722;76;22121;-62
2021/08/15 00:48:46;;;;;;;15.13;7.08;;;;;;;20.05;52.71;99297.52;1889895;76;22657;-63
2021/08/15 00:51:21;;;;;;;9.68;6.03;;;;;;;20.03;52.73;99297.98;1861511;76;22537;-62
2021/08/15 00:53:58;;;;;;;10.95;6.58;;;;;;;19.93;52.81;99300.39;1889977;76;22503;-62
2021/08/15 00:56:32;;;;;;;11.78;6.72;;;;;;;19.99;52.80;99297.63;1870887;76;22544;-63
2021/08/15 00:59:08;;;;;;;14.10;6.75;;;;;;;19.98;52.89;99298.99;1870609;76;22156;-66
2021/08/15 01:01:54;;;;;;;18.32;6.65;;;;;;;19.85;53.36;99294.47;1890189;76;22183;-58
2021/08/15 01:04:49;;;;;;;17.75;6.65;;;;;;;19.82;53.26;99299.75;1889931;76;22142;-58
2021/08/15 01:07:25;;;;;;;16.48;6.87;;;;;;;19.87;53.37;99293.96;1870511;76;22176;-62
2021/08/15 01:10:00;;;;;;;17.07;7.20;;;;;;;19.84;53.50;99293.58;1889979;76;22136;-62
2021/08/15 01:12:42;;;;;;;14.10;6.87;;;;;;;19.81;53.65;99288.87;1869831;76;22170;-60
2021/08/15 01:15:37;;;;;;;13.13;7.17;;;;;;;19.76;53.93;99288.95;1870566;76;22600;-61
2021/08/15 01:18:35;;;;;;;10.90;6.80;;;;;;;19.63;54.40;99296.17;1870626;76;22137;-60
2021/08/15 01:21:35;;;;;;;15.13;7.00;;;;;;;19.66;54.66;99292.17;1889938;76;22167;-61
2021/08/15 01:24:11;;;;;;;15.18;8.03;;;;;;;19.61;54.83;99287.94;1854791;76;27916;-59
2021/08/15 01:26:48;;;;;;;12.40;7.83;;;;;;;19.55;55.20;99290.23;1870436;76;22179;-61
2021/08/15 01:29:23;;;;;;;20.23;8.35;;;;;;;19.59;55.07;99289.30;1873876;76;27892;-59
2021/08/15 01:32:05;;;;;;;20.77;7.75;;;;;;;19.61;55.37;99287.48;1890073;76;22143;-62
2021/08/15 01:34:39;;;;;;;15.60;7.97;;;;;;;19.55;55.72;99287.63;1835120;77;27980;-61
2021/08/15 01:37:14;;;;;;;16.73;7.62;;;;;;;19.56;55.90;99290.64;1840626;76;22227;-59
2021/08/15 01:39:50;;;;;;;18.37;7.30;;;;;;;19.50;56.06;99293.40;1870598;76;22157;-63
2021/08/15 01:42:24;;;;;;;18.42;7.50;;;;;;;19.30;56.77;99284.17;1870682;76;22116;-61
2021/08/15 01:45:12;;;;;;;12.58;7.78;;;;;;;19.37;56.79;99286.69;1890045;76;22577;-63
2021/08/15 01:48:06;;;;;;;13.22;7.22;;;;;;;19.29;57.11;99278.53;1870738;76;22181;-63
2021/08/15 01:51:00;;;;;;;11.45;7.53;;;;;;;19.22;57.19;99276.06;1862958;76;22181;-63
2021/08/15 01:53:35;;;;;;;15.18;7.42;;;;;;;19.08;57.41;99271.97;1870817;76;22140;-62
2021/08/15 01:56:11;;;;;;;15.45;7.53;;;;;;;19.14;57.33;99272.74;1870483;76;22167;-59
2021/08/15 01:58:47;;;;;;;13.50;6.95;;;;;;;19.10;57.55;99274.53;1870692;76;22162;-61
2021/08/15 02:01:22;;;;;;;14.07;8.38;;;;;;;19.06;57.75;99271.58;1843807;76;27900;-58
2021/08/15 02:04:18;;;;;;;12.28;7.70;;;;;;;19.11;57.96;99272.77;1867909;76;22148;-62
2021/08/15 02:06:59;;;;;;;16.00;7.00;;;;;;;19.07;58.29;99266.75;1889905;76;22188;-65
2021/08/15 02:09:53;;;;;;;12.00;6.87;;;;;;;19.03;58.55;99270.30;1889916;76;22187;-59
2021/08/15 02:12:28;;;;;;;12.90;7.58;;;;;;;19.00;58.88;99267.75;1870087;76;22185;-68
2021/08/15 02:15:05;;;;;;;15.40;8.50;;;;;;;18.99;59.22;99268.66;1873883;76;28045;-62
2021/08/15 02:17:40;;;;;;;16.02;7.87;;;;;;;19.03;59.39;99263.76;1870716;76;22579;-58
2021/08/15 02:20:18;;;;;;;15.55;8.35;;;;;;;19.02;59.58;99265.97;1852802;76;22146;-58
2021/08/15 02:22:53;;;;;;;12.40;7.50;;;;;;;18.98;59.61;99269.11;1831029;76;22184;-62
2021/08/15 02:25:54;;;;;;;13.25;8.28;;;;;;;18.94;59.89;99267.42;1864731;76;22219;-61
2021/08/15 02:28:29;;;;;;;12.88;7.55;;;;;;;18.91;59.93;99269.24;1857140;76;22695;-62
2021/08/15 02:31:22;;;;;;;14.25;8.25;;;;;;;18.89;60.12;99265.78;1859362;76;22252;-61
2021/08/15 02:33:57;;;;;;;14.00;7.75;;;;;;;18.85;60.27;99260.62;1870153;76;22141;-61
2021/08/15 02:36:33;;;;;;;13.25;7.80;;;;;;;18.83;60.36;99262.39;1870642;76;22168;-56
2021/08/15 02:39:08;;;;;;;12.03;7.35;;;;;;;18.83;60.51;99267.63;1870700;76;22161;-59
2021/08/15 02:41:43;;;;;;;17.65;8.08;;;;;;;18.81;60.67;99266.78;1870843;76;22133;-57
2021/08/15 02:44:18;;;;;;;14.00;7.72;;;;;;;18.80;60.88;99263.76;1870592;76;22160;-60
2021/08/15 02:46:53;;;;;;;13.13;7.22;;;;;;;18.79;61.16;99262.02;1870577;76;22109;-59
2021/08/15 02:49:28;;;;;;;12.90;7.30;;;;;;;18.80;61.17;99266.38;1870691;76;22561;-59
2021/08/15 02:52:04;;;;;;;15.38;8.35;;;;;;;18.80;61.25;99262.45;1854668;76;27874;-60
2021/08/15 02:54:58;;;;;;;15.68;7.95;;;;;;;18.86;61.20;99264.09;1870693;76;22105;-60
2021/08/15 02:57:53;;;;;;;16.20;8.55;;;;;;;18.84;61.22;99261.48;1873870;76;27926;-62
2021/08/15 03:00:28;;;;;;;14.68;7.70;;;;;;;18.88;61.28;99268.85;1889977;76;22136;-60
2021/08/15 03:03:03;;;;;;;13.18;7.90;;;;;;;18.87;61.35;99273.64;1874103;76;27933;-60
2021/08/15 03:05:58;;;;;;;12.70;7.60;;;;;;;18.95;61.37;99273.05;1870568;76;22157;-59
2021/08/15 03:08:34;;;;;;;17.00;8.45;;;;;;;18.94;61.45;99267.88;1854617;76;28307;-59
2021/08/15 03:11:08;;;;;;;14.73;8.15;;;;;;;18.93;61.37;99270.05;1870670;76;22600;-62
2021/08/15 03:13:46;;;;;;;14.50;6.87;;;;;;;18.99;61.41;99266.03;1890012;76;22132;-60
2021/08/15 03:16:21;;;;;;;17.25;7.58;;;;;;;18.94;61.59;99263.95;1870620;76;22137;-62
2021/08/15 03:19:02;;;;;;;12.47;7.05;;;;;;;18.99;61.35;99262.11;1869757;76;22165;-58
2021/08/15 03:21:39;;;;;;;13.68;7.50;;;;;;;19.00;61.31;99257.28;1870414;76;22196;-63
2021/08/15 03:24:15;;;;;;;12.88;7.12;;;;;;;19.02;61.28;99265.97;1889957;76;22146;-58
2021/08/15 03:26:50;;;;;;;15.55;8.30;;;;;;;19.04;61.23;99267.67;1870856;76;22140;-59
2021/08/15 03:29:25;;;;;;;17.20;7.40;;;;;;;19.06;61.28;99269.81;1890080;76;22159;-59
2021/08/15 03:32:19;;;;;;;11.88;7.47;;;;;;;19.09;61.46;99271.52;1870511;76;22120;-59
2021/08/15 03:34:54;;;;;;;14.58;7.37;;;;;;;19.12;61.46;99264.05;1870690;76;22109;-59
2021/08/15 03:37:29;;;;;;;11.73;7.90;;;;;;;19.13;61.54;99267.92;1870672;76;22576;-64
2021/08/15 03:40:06;;;;;;;18.23;7.97;;;;;;;19.17;61.44;99268.30;1870600;76;22112;-61
2021/08/15 03:43:01;;;;;;;15.15;7.97;;;;;;;19.21;61.33;99270.40;1870623;76;22133;-60
2021/08/15 03:45:38;;;;;;;11.00;7.03;;;;;;;19.25;61.15;99268.15;1870681;76;22607;-58
2021/08/15 03:48:12;;;;;;;11.25;7.10;;;;;;;19.28;60.98;99272.90;1870673;76;22245;-63
2021/08/15 03:50:47;;;;;;;15.00;7.72;;;;;;;19.32;60.88;99274.14;1870670;76;22169;-60
2021/08/15 03:53:21;;;;;;;14.55;8.18;;;;;;;19.34;60.81;99268.44;1870708;76;22132;-64
2021/08/15 03:55:58;;;;;;;12.28;7.65;;;;;;;19.38;60.70;99272.70;1870511;76;22164;-59
2021/08/15 03:58:52;;;;;;;13.35;7.37;;;;;;;19.42;60.62;99266.52;1889921;76;22148;-60
2021/08/15 04:01:28;;;;;;;14.13;8.33;;;;;;;19.47;60.65;99272.07;1854605;76;28384;-63
2021/08/15 04:04:10;;;;;;;13.38;8.30;;;;;;;19.56;60.46;99264.47;1869799;76;22113;-60
2021/08/15 04:06:44;;;;;;;15.80;9.05;;;;;;;19.58;60.29;99269.23;1854939;76;27908;-61
2021/08/15 04:09:19;;;;;;;15.72;8.13;;;;;;;19.64;60.32;99265.61;1870663;76;22558;-63
2021/08/15 04:12:13;;;;;;;13.15;8.85;;;;;;;19.66;60.22;99267.30;1870663;76;22104;-64
2021/08/15 04:14:54;;;;;;;15.20;8.60;;;;;;;19.66;60.30;99267.30;1889957;76;22527;-57
2021/08/15 04:17:28;;;;;;;13.22;8.15;;;;;;;19.70;60.29;99264.22;1889953;76;22136;-61
2021/08/15 04:20:05;;;;;;;18.00;8.48;;;;;;;19.73;60.23;99267.63;1889962;76;22176;-58
2021/08/15 04:22:41;;;;;;;21.20;8.40;;;;;;;19.78;60.09;99258.37;1870429;76;22175;-63
2021/08/15 04:25:16;;;;;;;17.15;9.23;;;;;;;19.83;60.08;99266.12;1870694;76;22141;-58
2021/08/15 04:27:51;;;;;;;12.40;7.95;;;;;;;19.89;59.84;99270.77;1889967;76;22192;-65
2021/08/15 04:30:44;;;;;;;20.90;8.88;;;;;;;19.97;60.14;99267.98;1870652;76;22141;-57
2021/08/15 04:33:21;;;;;;;13.18;7.70;;;;;;;20.00;60.58;99266.63;1889990;76;22108;-59
2021/08/15 04:35:54;;;;;;;19.80;9.08;;;;;;;20.04;60.59;99270.88;1855013;76;27948;-63
2021/08/15 04:38:29;;;;;;;16.57;8.28;;;;;;;20.15;60.34;99268.89;1870723;76;22165;-58
2021/08/15 04:41:04;;;;;;;18.12;7.87;;;;;;;20.28;60.15;99265.98;1870793;76;22140;-60
2021/08/15 04:43:44;;;;;;;14.43;8.13;;;;;;;20.38;59.83;99266.19;1889966;76;22140;-63
2021/08/15 04:46:19;;;;;;;12.75;7.30;;;;;;;20.48;59.44;99260.23;1870676;76;22145;-59
2021/08/15 04:48:54;;;;;;;11.18;7.30;;;;;;;20.55;59.18;99260.08;1835126;77;22152;-61
2021/08/15 04:51:48;;;;;;;15.58;7.87;;;;;;;20.67;58.98;99258.92;1870642;76;22527;-64
2021/08/15 04:54:45;;;;;;;13.05;7.20;;;;;;;20.78;58.43;99260.81;1866002;75;22197;-64
2021/08/15 04:57:20;;;;;;;15.03;8.03;;;;;;;20.88;58.21;99262.75;1873896;76;27924;-62
2021/08/15 04:59:54;;;;;;;13.78;7.10;;;;;;;21.07;58.15;99266.22;1870688;76;22133;-61
2021/08/15 05:02:30;;;;;;;14.25;8.30;;;;;;;21.23;58.10;99266.20;1874027;76;27902;-61
2021/08/15 05:05:24;;;;;;;13.65;7.03;;;;;;;21.43;57.70;99262.59;1870670;76;22223;-60
2021/08/15 05:08:00;;;;;;;11.18;6.15;;;;;;;21.58;57.13;99260.44;1870616;76;22596;-62
2021/08/15 05:10:36;;;;;;;11.93;7.60;;;;;;;21.70;56.51;99252.63;1854602;76;28354;-63
2021/08/15 05:13:12;;;;;;;10.55;6.58;;;;;;;21.89;56.07;99258.60;1870504;76;22165;-59
2021/08/15 05:15:47;;;;;;;11.45;6.67;;;;;;;22.05;55.42;99255.50;1870697;76;22109;-60
2021/08/15 05:18:40;;;;;;;10.60;6.03;;;;;;;22.21;55.09;99258.53;1870536;76;22181;-59
2021/08/15 05:21:15;;;;;;;9.73;5.67;;;;;;;22.45;54.75;99258.22;1889932;76;22183;-62
2021/08/15 05:23:50;;;;;;;10.30;6.05;;;;;;;23.37;52.98;99265.12;1870672;76;22171;-62
2021/08/15 05:26:25;;;;;;;10.65;7.17;;;;;;;24.42;51.29;99255.83;1870669;76;22140;-63
2021/08/15 05:29:19;;;;;;;9.73;6.42;;;;;;;26.50;47.21;99254.86;1889921;76;22120;-60
2021/08/15 05:31:54;;;;;;;10.78;6.10;;;;;;;28.38;42.96;99258.18;1889962;76;22100;-64
2021/08/15 05:34:48;;;;;;;13.72;6.55;;;;;;;30.18;38.82;99268.07;1870570;76;22153;-65
2021/08/15 05:37:29;;;;;;;9.80;5.37;;;;;;;31.61;36.57;99277.11;1869733;76;22136;-61
2021/08/15 05:40:09;;;;;;;11.03;5.85;;;;;;;33.00;34.05;99273.52;1870541;76;22156;-57
2021/08/15 05:42:44;;;;;;;11.40;5.85;;;;;;;34.35;32.02;99287.42;1870570;76;22086;-64
2021/08/15 05:45:38;;;;;;;10.13;5.22;;;;;;;35.75;30.00;99288.48;1870640;76;22240;-65
2021/08/15 05:48:32;;;;;;;10.55;5.05;;;;;;;36.88;28.04;99294.81;1870514;76;22537;-66
2021/08/15 05:51:13;;;;;;;8.03;5.03;;;;;;;37.80;27.04;99302.23;1889916;76;22567;-63
2021/08/15 05:54:06;;;;;;;6.90;4.65;;;;;;;38.68;25.60;99308.98;1889926;76;22082;-60
2021/08/15 05:57:00;;;;;;;7.15;4.53;;;;;;;39.02;24.79;99316.70;1870582;76;22153;-61
2021/08/15 05:59:35;;;;;;;9.10;3.75;;;;;;;39.37;24.16;99319.00;1870682;76;22091;-65
2021/08/15 06:02:10;;;;;;;12.73;4.35;;;;;;;39.67;24.00;99314.95;1870679;76;22086;-62
2021/08/15 06:04:44;;;;;;;9.38;4.65;;;;;;;40.70;23.08;99324.77;1889979;76;22073;-60
2021/08/15 06:07:20;;;;;;;7.67;4.37;;;;;;;41.53;22.01;99325.93;1874013;76;28364;-62
2021/08/15 06:09:55;;;;;;;7.17;3.80;;;;;;;42.11;21.30;99336.56;1889927;76;22140;-63
2021/08/15 06:12:29;;;;;;;6.72;3.95;;;;;;;42.65;20.77;99335.25;1870639;76;22078;-63
2021/08/15 06:15:12;;;;;;;5.67;3.95;;;;;;;43.32;20.13;99335.38;1870653;76;22063;-64
2021/08/15 06:18:04;;;;;;;6.40;3.60;;;;;;;44.13;19.31;99344.17;1870566;76;22082;-66
2021/08/15 06:20:39;;;;;;;9.70;4.12;;;;;;;44.75;18.73;99346.84;1870640;76;22493;-61
2021/08/15 06:23:33;;;;;;;8.58;3.87;;;;;;;44.81;18.15;99347.47;1870800;76;22165;-64
2021/08/15 06:26:08;;;;;;;5.50;3.67;;;;;;;44.36;18.46;99344.02;1889916;76;22070;-66
2021/08/15 06:29:02;;;;;;;7.75;3.90;;;;;;;44.43;18.61;99349.05;1889865;76;22062;-64
2021/08/15 06:31:56;;;;;;;7.35;3.90;;;;;;;45.17;18.08;99346.54;1889885;76;22061;-65
2021/08/15 06:34:49;;;;;;;7.75;3.80;;;;;;;45.75;17.61;99345.79;1870546;76;22066;-64
2021/08/15 06:37:24;;;;;;;7.50;3.50;;;;;;;46.20;17.21;99342.10;1889912;76;22074;-62
2021/08/15 06:39:59;;;;;;;7.10;3.90;;;;;;;46.44;16.89;99342.64;1854700;76;27916;-64
2021/08/15 06:42:35;;;;;;;6.28;3.62;;;;;;;46.39;16.81;99347.34;1854688;76;28009;-65
2021/08/15 06:45:11;;;;;;;5.50;3.40;;;;;;;46.43;16.90;99343.66;1870730;76;22591;-65
2021/08/15 06:47:46;;;;;;;6.45;3.30;;;;;;;46.33;17.00;99344.92;1889879;76;22077;-61
2021/08/15 06:50:40;;;;;;;5.78;3.30;;;;;;;46.18;16.72;99346.91;1870552;76;22082;-61
2021/08/15 06:53:14;;;;;;;9.05;3.65;;;;;;;45.87;17.38;99350.12;1870652;76;22493;-67
2021/08/15 06:56:10;;;;;;;7.40;3.65;;;;;;;46.31;17.01;99345.62;1870544;76;22490;-64
2021/08/15 06:58:45;;;;;;;7.87;3.77;;;;;;;46.74;16.84;99348.06;1889980;76;22074;-68
2021/08/15 07:01:20;;;;;;;7.40;3.55;;;;;;;46.72;16.63;99354.26;1870596;76;22176;-68
2021/08/15 07:03:56;;;;;;;5.45;3.70;;;;;;;46.69;16.76;99349.19;1870373;76;22074;-64
2021/08/15 07:06:56;;;;;;;8.55;3.95;;;;;;;47.21;16.24;99340.42;1869653;76;22189;-64
2021/08/15 07:09:31;;;;;;;7.10;3.75;;;;;;;46.88;16.42;99345.34;1870625;76;22058;-63
2021/08/15 07:12:06;;;;;;;6.62;3.92;;;;;;;46.43;16.87;99342.30;1889918;76;22077;-65
2021/08/15 07:14:42;;;;;;;7.75;3.67;;;;;;;46.68;16.60;99342.02;1854864;76;27920;-62
2021/08/15 07:17:37;;;;;;;7.30;3.30;;;;;;;46.78;16.41;99344.38;1870567;76;22481;-65
2021/08/15 07:20:14;;;;;;;6.35;2.90;;;;;;;46.91;16.47;99339.45;1870641;76;22470;-64
2021/08/15 07:23:08;;;;;;;7.87;3.17;;;;;;;47.13;16.18;99337.37;1870640;76;22470;-70
2021/08/15 07:26:02;;;;;;;7.58;3.50;;;;;;;46.81;16.04;99343.13;1870567;76;22062;-66
2021/08/15 07:28:37;;;;;;;7.45;3.45;;;;;;;46.69;16.17;99340.99;1854867;76;27927;-61
2021/08/15 07:31:30;;;;;;;5.25;2.90;;;;;;;46.51;16.41;99340.73;1870573;76;22486;-61
2021/08/15 07:34:05;;;;;;;7.12;3.17;;;;;;;46.68;16.27;99343.92;1870622;76;22082;-62
2021/08/15 07:36:40;;;;;;;9.58;3.22;;;;;;;47.23;15.92;99346.52;1870732;76;22083;-69
2021/08/15 07:39:15;;;;;;;7.10;3.52;;;;;;;47.27;15.84;99341.75;1870599;76;22079;-62
2021/08/15 07:42:09;;;;;;;5.08;2.95;;;;;;;47.60;15.56;99337.61;1889802;76;22496;-68
2021/08/15 07:44:45;;;;;;;7.08;3.40;;;;;;;47.61;15.53;99331.64;1870411;76;22114;-65
2021/08/15 07:47:40;;;;;;;7.58;3.40;;;;;;;47.19;15.81;99337.35;1889875;76;22097;-66
2021/08/15 07:50:16;;;;;;;6.17;3.47;;;;;;;47.43;15.76;99340.99;1873996;76;27929;-64
2021/08/15 07:53:17;;;;;;;5.33;3.05;;;;;;;47.95;15.23;99341.95;1870661;76;20212;-63
2021/08/15 07:56:17;;;;;;;6.67;2.95;;;;;;;47.96;15.16;99340.88;1869663;76;22142;-65
2021/08/15 07:59:11;;;;;;;7.15;3.70;;;;;;;47.38;15.58;99337.56;1870628;76;22458;-62
2021/08/15 08:02:04;;;;;;;4.67;2.92;;;;;;;46.84;16.03;99324.41;1870518;76;22087;-66
2021/08/15 08:04:39;;;;;;;5.05;3.25;;;;;;;46.42;16.31;99325.62;1870631;76;22516;-69
2021/08/15 08:07:15;;;;;;;7.28;3.52;;;;;;;46.11;16.27;99322.88;1870616;76;22594;-64
2021/08/15 08:09:51;;;;;;;6.53;3.08;;;;;;;45.55;16.84;99324.36;1870764;76;20351;-60
2021/08/15 08:12:47;;;;;;;7.17;3.15;;;;;;;44.95;17.46;99320.65;1870365;76;22169;-66
2021/08/15 08:15:22;;;;;;;6.75;3.58;;;;;;;45.00;17.42;99312.73;1874098;76;28033;-63
2021/08/15 08:18:16;;;;;;;7.53;3.20;;;;;;;44.92;17.40;99306.07;1889872;76;22116;-64
2021/08/15 08:20:51;;;;;;;5.45;2.92;;;;;;;44.53;17.57;99321.48;1870640;76;22054;-64
2021/08/15 08:23:44;;;;;;;5.37;2.87;;;;;;;44.44;17.86;99319.42;1870550;76;22538;-65
2021/08/15 08:26:20;;;;;;;4.87;2.90;;;;;;;44.49;17.61;99314.23;1870422;76;22480;-64
2021/08/15 08:28:58;;;;;;;7.33;2.92;;;;;;;43.97;17.94;99311.21;1870739;76;22070;-62
2021/08/15 08:31:33;;;;;;;5.17;2.80;;;;;;;43.54;18.27;99304.23;1870687;76;22062;-66
2021/08/15 08:34:07;;;;;;;6.60;3.12;;;;;;;43.18;18.47;99301.39;1870605;76;22050;-65
2021/08/15 08:36:42;;;;;;;5.17;3.10;;;;;;;42.81;18.82;99294.41;1870632;76;22078;-66
2021/08/15 08:39:36;;;;;;;5.62;3.08;;;;;;;42.80;19.04;99294.09;1870713;76;22051;-65
2021/08/15 08:42:12;;;;;;;6.33;2.98;;;;;;;43.05;18.90;99298.80;1870619;76;22075;-63
2021/08/15 08:45:10;;;;;;;7.95;3.40;;;;;;;43.28;19.07;99292.45;1889920;76;22082;-66
2021/08/15 08:47:47;;;;;;;6.08;2.80;;;;;;;43.79;18.60;99299.37;1870584;76;22078;-66
2021/08/15 08:50:41;;;;;;;7.20;3.37;;;;;;;44.24;18.01;99299.29;1873882;76;27938;-64
2021/08/15 08:53:16;;;;;;;6.95;3.30;;;;;;;44.10;17.97;99298.31;1854842;76;27943;-62
2021/08/15 08:55:51;;;;;;;6.60;3.00;;;;;;;43.50;18.41;99292.05;1819556;77;38416;-64
2021/08/15 08:58:45;;;;;;;7.72;3.12;;;;;;;43.17;19.00;99277.43;1870454;76;22188;-67
2021/08/15 09:01:21;;;;;;;5.30;2.83;;;;;;;42.78;19.01;99277.14;1889970;76;22476;-62
2021/08/15 09:04:15;;;;;;;5.25;3.20;;;;;;;42.16;19.42;99279.42;1870608;76;22240;-64
2021/08/15 09:07:13;;;;;;;6.80;3.60;;;;;;;41.88;19.61;99269.53;1889903;76;22114;-62
2021/08/15 09:10:01;;;;;;;7.62;3.27;;;;;;;41.49;20.02;99261.39;1870612;76;22478;-62
2021/08/15 09:13:03;;;;;;;6.97;3.50;;;;;;;41.09;20.44;99259.13;1854827;76;38192;-58
2021/08/15 09:15:58;;;;;;;6.17;3.40;;;;;;;40.50;20.92;99257.41;1890085;76;22110;-63
2021/08/15 09:18:53;;;;;;;6.95;3.00;;;;;;;39.40;21.91;99249.80;1870470;76;22054;-64
2021/08/15 09:21:46;;;;;;;5.65;3.33;;;;;;;38.52;22.95;99236.36;1870544;76;22623;-61
2021/08/15 09:24:21;;;;;;;6.78;3.47;;;;;;;37.96;23.71;99236.06;1889910;76;22074;-65
2021/08/15 09:27:33;;;;;;;6.53;3.87;;;;;;;37.50;23.91;99228.43;1870560;76;22086;-61
2021/08/15 09:30:28;;;;;;;9.30;3.55;;;;;;;36.76;24.91;99217.95;1889916;76;22081;-62
2021/08/15 09:33:17;;;;;;;8.25;3.62;;;;;;;35.97;26.06;99216.70;1870597;76;22078;-64
2021/08/15 09:36:29;;;;;;;8.53;4.20;;;;;;;35.15;26.81;99204.27;1869624;76;22127;-64
2021/08/15 09:39:07;;;;;;;8.73;3.83;;;;;;;34.40;27.81;99203.47;1870402;76;22087;-61
2021/08/15 09:42:02;;;;;;;7.60;3.75;;;;;;;33.68;29.13;99201.34;1870538;76;20356;-64
2021/08/15 09:44:37;;;;;;;8.25;4.30;;;;;;;32.89;29.72;99194.61;1873843;76;38661;-66
2021/08/15 09:47:13;;;;;;;9.23;4.08;;;;;;;32.60;30.21;99191.03;1870692;76;22164;-66
2021/08/15 09:49:48;;;;;;;9.43;4.13;;;;;;;32.32;30.73;99186.91;1854876;76;27933;-67
2021/08/15 09:52:45;;;;;;;6.45;4.12;;;;;;;32.17;30.84;99181.39;1870616;76;22071;-64
2021/08/15 09:55:21;;;;;;;7.12;3.98;;;;;;;31.94;31.12;99177.27;1870616;76;22039;-61
2021/08/15 09:58:17;;;;;;;12.58;5.08;;;;;;;31.64;31.39;99180.83;1889892;76;22511;-61
2021/08/15 10:00:55;;;;;;;7.62;3.80;;;;;;;31.12;32.39;99169.39;1870479;76;22067;-65
2021/08/15 10:03:50;;;;;;;6.85;4.28;;;;;;;30.76;33.18;99176.76;1846669;76;28324;-62
2021/08/15 10:06:26;;;;;;;6.90;3.67;;;;;;;30.71;33.03;99167.77;1870365;76;22493;-61
2021/08/15 10:09:40;;;;;;;6.83;4.50;;;;;;;30.67;33.15;99162.27;1866490;75;22346;-66
2021/08/15 10:12:15;;;;;;;9.50;4.57;;;;;;;30.60;33.41;99155.66;1854747;76;28073;-66
2021/08/15 10:14:49;;;;;;;7.62;3.98;;;;;;;30.64;33.43;99153.16;1889867;76;22607;-62
2021/08/15 10:17:29;;;;;;;8.28;4.28;;;;;;;30.57;33.71;99150.06;1866659;76;22079;-64
2021/08/15 10:20:29;;;;;;;8.18;4.60;;;;;;;30.35;33.88;99144.00;1870508;76;22647;-61
2021/08/15 10:23:24;;;;;;;7.85;4.33;;;;;;;30.23;34.21;99144.83;1870674;76;22616;-58
2021/08/15 10:26:39;;;;;;;9.43;4.05;;;;;;;30.25;34.09;99140.25;1870556;76;22615;-62
2021/08/15 10:29:38;;;;;;;7.50;4.20;;;;;;;30.19;34.19;99135.33;1870362;76;22125;-66
2021/08/15 10:32:20;;;;;;;7.15;4.05;;;;;;;30.20;34.31;99134.35;1855438;76;22202;-60
2021/08/15 10:35:01;;;;;;;9.43;3.90;;;;;;;30.24;34.16;99126.58;1886129;76;22188;-66
2021/08/15 10:37:36;;;;;;;6.25;4.00;;;;;;;30.30;33.73;99135.47;1850882;77;22088;-64
2021/08/15 10:40:34;;;;;;;6.42;3.83;;;;;;;30.31;33.66;99130.54;1870501;76;20105;-64
2021/08/15 10:43:25;;;;;;;7.50;4.00;;;;;;;30.33;34.13;99125.09;1870599;76;22710;-63
2021/08/15 10:46:18;;;;;;;8.88;4.10;;;;;;;30.42;34.21;99121.33;1870611;76;22287;-66
2021/08/15 10:49:09;;;;;;;10.40;4.00;;;;;;;30.47;34.18;99116.54;1889844;76;22618;-67
2021/08/15 10:51:52;;;;;;;8.88;4.40;;;;;;;30.47;34.27;99115.20;1889279;76;22134;-62
2021/08/15 10:54:34;;;;;;;9.53;4.50;;;;;;;30.53;34.59;99117.08;1855026;76;27913;-62
2021/08/15 10:57:10;;;;;;;8.13;3.83;;;;;;;30.56;34.23;99119.52;1889897;76;22539;-64
2021/08/15 11:00:32;;;;;;;9.73;4.37;;;;;;;30.54;34.58;99109.47;1870552;76;22319;-63
2021/08/15 11:03:27;;;;;;;7.03;4.20;;;;;;;30.53;34.52;99109.08;1889884;76;22078;-63
2021/08/15 11:06:41;;;;;;;5.83;3.45;;;;;;;30.60;34.81;99106.38;1870395;76;22531;-67
2021/08/15 11:09:19;;;;;;;8.65;4.33;;;;;;;30.72;34.54;99105.52;1870601;76;22137;-66
2021/08/15 11:12:13;;;;;;;7.53;4.72;;;;;;;30.69;34.27;99103.92;1870575;76;22547;-69
2021/08/15 11:15:10;;;;;;;9.33;4.40;;;;;;;30.56;34.67;99106.20;1873894;76;27900;-65
2021/08/15 11:17:49;;;;;;;11.78;4.28;;;;;;;30.70;34.25;99100.77;1870738;76;22083;-65
2021/08/15 11:20:51;;;;;;;7.37;4.42;;;;;;;30.84;34.08;99099.38;1889838;76;22231;-62
2021/08/15 11:23:27;;;;;;;7.22;3.98;;;;;;;30.97;33.70;99098.02;1870481;76;22132;-64
2021/08/15 11:26:23;;;;;;;8.43;4.28;;;;;;;31.09;33.71;99102.48;1870540;76;22582;-68
2021/08/15 11:29:00;;;;;;;6.70;4.30;;;;;;;31.17;33.60;99099.27;1870557;76;22489;-65
2021/08/15 11:32:00;;;;;;;7.12;4.10;;;;;;;31.25;33.33;99091.55;1889803;76;22147;-68
2021/08/15 11:35:06;;;;;;;7.30;4.12;;;;;;;31.13;33.57;99085.77;1889861;76;22586;-62
2021/08/15 11:38:00;;;;;;;7.97;4.25;;;;;;;31.15;33.74;99085.19;1870529;76;22282;-68
2021/08/15 11:40:40;;;;;;;10.10;4.37;;;;;;;31.22;33.50;99079.78;1854836;76;27988;-59
2021/08/15 11:43:21;;;;;;;7.55;4.35;;;;;;;31.31;33.35;99073.77;1870539;76;22244;-62
2021/08/15 11:46:20;;;;;;;6.78;4.20;;;;;;;31.43;33.45;99073.88;1870351;76;22167;-63
2021/08/15 11:48:57;;;;;;;10.35;5.53;;;;;;;31.52;32.85;99071.84;1870373;76;22624;-66
2021/08/15 11:51:38;;;;;;;7.85;4.65;;;;;;;31.66;32.98;99072.17;1869685;76;22575;-64
2021/08/15 11:54:38;;;;;;;8.30;4.95;;;;;;;31.84;32.63;99068.61;1870559;76;22240;-66
2021/08/15 11:57:51;;;;;;;8.60;4.58;;;;;;;31.96;32.57;99067.72;1889940;76;22472;-66
2021/08/15 12:00:40;;;;;;;7.20;4.53;;;;;;;32.11;32.18;99063.88;1889998;76;22082;-64
2021/08/15 12:03:21;;;;;;;7.95;3.85;;;;;;;32.29;31.80;99060.73;1889917;76;22599;-64
2021/08/15 12:06:15;;;;;;;8.75;4.58;;;;;;;32.39;31.60;99055.08;1870643;76;22228;-66
2021/08/15 12:08:51;;;;;;;8.03;4.80;;;;;;;32.35;31.22;99060.28;1854600;76;28005;-64
2021/08/15 12:11:33;;;;;;;8.75;5.53;;;;;;;32.17;31.59;99052.72;1870565;76;22043;-66
2021/08/15 12:14:12;;;;;;;7.78;5.00;;;;;;;32.26;31.85;99051.63;1870439;76;22050;-61
2021/08/15 12:17:06;;;;;;;7.25;4.20;;;;;;;32.36;31.63;99057.96;1870604;76;22274;-65
2021/08/15 12:19:40;;;;;;;8.38;4.20;;;;;;;32.50;31.68;99047.59;1870636;76;22287;-63
2021/08/15 12:22:18;;;;;;;8.00;4.42;;;;;;;32.51;31.60;99055.47;1889853;76;22547;-70
2021/08/15 12:24:59;;;;;;;8.65;4.62;;;;;;;32.46;31.61;99044.25;1870422;76;22055;-63
2021/08/15 12:27:53;;;;;;;6.33;4.20;;;;;;;32.40;31.57;99052.27;1890035;76;22065;-65
2021/08/15 12:30:47;;;;;;;9.20;4.95;;;;;;;32.47;31.26;99042.45;1870568;76;22643;-65
2021/08/15 12:33:24;;;;;;;8.20;4.50;;;;;;;32.37;31.28;99047.66;1870626;76;22208;-65
2021/08/15 12:36:45;;;;;;;7.85;4.80;;;;;;;32.49;31.70;99042.73;1863868;75;27904;-63
2021/08/15 12:39:31;;;;;;;6.50;4.22;;;;;;;32.67;31.36;99045.77;1870531;76;22540;-64
2021/08/15 12:42:25;;;;;;;7.62;4.62;;;;;;;32.72;31.30;99041.37;1870676;76;22205;-63
2021/08/15 12:45:40;;;;;;;7.75;4.90;;;;;;;32.76;31.12;99047.70;1889822;76;22511;-59